createdAt,value
2018-05-04T00:00:08.924Z,6.3
2018-05-04T00:01:09.640Z,6.4
2018-05-04T00:02:10.348Z,6.3
2018-05-04T00:03:11.077Z,6.3
2018-05-04T00:04:11.779Z,6.3
2018-05-04T00:05:12.504Z,6.4
2018-05-04T00:06:13.230Z,6.3
2018-05-04T00:07:13.999Z,6.3
2018-05-04T00:08:14.711Z,6.2
2018-05-04T00:09:15.414Z,6.1
2018-05-04T00:10:16.144Z,6.1
2018-05-04T00:11:16.859Z,6.1
2018-05-04T00:12:17.578Z,6.1
2018-05-04T00:13:18.288Z,6.1
2018-05-04T00:14:19.004Z,6.1
2018-05-04T00:15:19.731Z,6.1
2018-05-04T00:16:20.529Z,6.1
2018-05-04T00:17:21.167Z,6.1
2018-05-04T00:18:21.875Z,6.1
2018-05-04T00:19:22.638Z,6.0
2018-05-04T00:20:23.348Z,6.0
2018-05-04T00:21:24.070Z,6.0
2018-05-04T00:22:24.781Z,6.0
2018-05-04T00:23:25.494Z,6.1
2018-05-04T00:24:26.517Z,6.0
2018-05-04T00:25:27.242Z,6.0
2018-05-04T00:26:28.005Z,5.9
2018-05-04T00:27:28.769Z,6.0
2018-05-04T00:28:29.527Z,6.0
2018-05-04T00:29:30.329Z,5.9
2018-05-04T00:30:31.197Z,5.9
2018-05-04T00:31:32.074Z,5.9
2018-05-04T00:32:32.810Z,5.9
2018-05-04T00:33:33.664Z,5.9
2018-05-04T00:34:34.412Z,5.9
2018-05-04T00:35:35.171Z,5.9
2018-05-04T00:36:35.892Z,5.9
2018-05-04T00:37:36.851Z,5.9
2018-05-04T00:38:37.561Z,6.0
2018-05-04T00:39:38.284Z,5.9
2018-05-04T00:40:39.012Z,5.9
2018-05-04T00:41:39.728Z,6.0
2018-05-04T00:42:40.445Z,5.9
2018-05-04T00:43:41.164Z,5.9
2018-05-04T00:44:41.883Z,6.0
2018-05-04T00:45:42.605Z,5.9
2018-05-04T00:46:43.317Z,6.0
2018-05-04T00:47:44.384Z,5.9
2018-05-04T00:48:45.102Z,5.9
2018-05-04T00:49:45.815Z,5.8
2018-05-04T00:50:46.533Z,5.9
2018-05-04T00:51:47.255Z,5.8
2018-05-04T00:52:47.958Z,5.8
2018-05-04T00:53:48.672Z,5.9
2018-05-04T00:54:49.392Z,5.8
2018-05-04T00:55:50.122Z,5.7
2018-05-04T00:56:50.834Z,5.8
2018-05-04T00:57:51.556Z,5.8
2018-05-04T00:58:52.275Z,5.8
2018-05-04T00:59:52.997Z,6.0
2018-05-04T01:00:53.707Z,5.8
2018-05-04T01:01:54.430Z,5.8
2018-05-04T01:02:55.138Z,5.8
2018-05-04T01:03:55.859Z,5.8
2018-05-04T01:04:56.577Z,5.8
2018-05-04T01:05:57.294Z,5.8
2018-05-04T01:06:58.004Z,5.8
2018-05-04T01:07:58.712Z,5.6
2018-05-04T01:08:59.589Z,5.5
2018-05-04T01:10:00.304Z,5.7
2018-05-04T01:11:01.029Z,5.7
2018-05-04T01:12:01.758Z,5.6
2018-05-04T01:13:02.471Z,5.6
2018-05-04T01:14:03.528Z,5.7
2018-05-04T01:15:04.241Z,5.6
2018-05-04T01:16:04.950Z,5.6
2018-05-04T01:17:05.674Z,5.5
2018-05-04T01:18:06.378Z,5.6
2018-05-04T01:19:07.094Z,5.6
2018-05-04T01:20:07.800Z,5.6
2018-05-04T01:21:08.562Z,5.5
2018-05-04T01:22:09.295Z,5.5
2018-05-04T01:23:10.021Z,5.5
2018-05-04T01:24:10.732Z,5.6
2018-05-04T01:25:11.457Z,5.6
2018-05-04T01:26:12.180Z,5.6
2018-05-04T01:27:12.892Z,5.6
2018-05-04T01:28:13.638Z,5.6
2018-05-04T01:29:14.330Z,5.5
2018-05-04T01:30:15.299Z,5.5
2018-05-04T01:31:16.616Z,5.6
2018-05-04T01:32:17.329Z,5.5
2018-05-04T01:33:18.068Z,5.4
2018-05-04T01:34:18.777Z,5.4
2018-05-04T01:35:19.482Z,5.4
2018-05-04T01:36:20.188Z,5.4
2018-05-04T01:37:21.050Z,5.3
2018-05-04T01:38:21.777Z,5.3
2018-05-04T01:39:22.636Z,5.3
2018-05-04T01:40:23.367Z,5.3
2018-05-04T01:41:24.089Z,5.2
2018-05-04T01:42:24.801Z,5.1
2018-05-04T01:43:25.514Z,5.2
2018-05-04T01:44:26.228Z,5.1
2018-05-04T01:45:26.956Z,5.2
2018-05-04T01:46:27.655Z,5.2
2018-05-04T01:47:28.711Z,5.2
2018-05-04T01:48:29.431Z,5.1
2018-05-04T01:49:30.156Z,5.1
2018-05-04T01:50:30.888Z,5.1
2018-05-04T01:51:31.620Z,5.0
2018-05-04T01:52:32.380Z,5.1
2018-05-04T01:53:33.346Z,5.1
2018-05-04T01:54:34.041Z,5.1
2018-05-04T01:55:34.748Z,5.1
2018-05-04T01:56:35.462Z,5.2
2018-05-04T01:57:36.315Z,5.1
2018-05-04T01:58:37.037Z,5.1
2018-05-04T01:59:37.756Z,5.1
2018-05-04T02:00:38.468Z,5.1
2018-05-04T02:01:39.180Z,5.1
2018-05-04T02:02:39.957Z,5.1
2018-05-04T02:03:40.671Z,5.0
2018-05-04T02:04:41.380Z,5.0
2018-05-04T02:05:42.096Z,4.9
2018-05-04T02:06:42.802Z,5.0
2018-05-04T02:07:43.582Z,5.0
2018-05-04T02:08:44.238Z,4.9
2018-05-04T02:09:44.955Z,5.0
2018-05-04T02:10:45.704Z,4.9
2018-05-04T02:11:46.387Z,4.9
2018-05-04T02:12:47.339Z,4.9
2018-05-04T02:13:48.127Z,4.8
2018-05-04T02:14:48.846Z,4.9
2018-05-04T02:15:49.568Z,4.8
2018-05-04T02:16:50.287Z,4.9
2018-05-04T02:17:51.260Z,5.0
2018-05-04T02:18:51.967Z,5.0
2018-05-04T02:19:52.700Z,4.8
2018-05-04T02:20:53.411Z,4.8
2018-05-04T02:21:54.250Z,4.9
2018-05-04T02:22:54.973Z,4.8
2018-05-04T02:23:55.703Z,4.8
2018-05-04T02:24:56.417Z,4.8
2018-05-04T02:25:57.136Z,4.9
2018-05-04T02:26:57.849Z,4.8
2018-05-04T02:27:58.576Z,4.8
2018-05-04T02:28:59.290Z,4.8
2018-05-04T02:30:00.014Z,4.9
2018-05-04T02:31:01.124Z,4.9
2018-05-04T02:32:01.843Z,4.8
2018-05-04T02:33:02.547Z,4.8
2018-05-04T02:34:03.264Z,4.8
2018-05-04T02:35:03.983Z,4.8
2018-05-04T02:36:04.707Z,4.8
2018-05-04T02:37:05.433Z,4.8
2018-05-04T02:38:06.155Z,4.8
2018-05-04T02:39:06.869Z,4.7
2018-05-04T02:40:07.598Z,4.7
2018-05-04T02:41:08.457Z,4.8
2018-05-04T02:42:09.175Z,4.7
2018-05-04T02:43:09.883Z,4.8
2018-05-04T02:44:10.594Z,4.8
2018-05-04T02:45:11.332Z,4.8
2018-05-04T02:46:12.357Z,4.8
2018-05-04T02:47:13.137Z,4.7
2018-05-04T02:48:13.893Z,4.6
2018-05-04T02:49:15.065Z,4.8
2018-05-04T02:50:15.773Z,4.7
2018-05-04T02:51:16.592Z,4.7
2018-05-04T02:52:17.337Z,4.7
2018-05-04T02:53:18.415Z,4.7
2018-05-04T02:54:19.124Z,4.8
2018-05-04T02:55:19.845Z,4.6
2018-05-04T02:56:20.574Z,4.6
2018-05-04T02:57:21.280Z,4.5
2018-05-04T02:58:22.254Z,4.5
2018-05-04T02:59:22.968Z,4.6
2018-05-04T03:00:23.678Z,4.5
2018-05-04T03:01:24.386Z,4.5
2018-05-04T03:02:25.103Z,4.5
2018-05-04T03:03:26.075Z,4.5
2018-05-04T03:04:26.786Z,4.4
2018-05-04T03:05:27.501Z,4.5
2018-05-04T03:06:28.227Z,4.5
2018-05-04T03:07:28.940Z,4.4
2018-05-04T03:08:29.668Z,4.5
2018-05-04T03:09:30.380Z,4.4
2018-05-04T03:10:31.189Z,4.4
2018-05-04T03:11:31.897Z,4.4
2018-05-04T03:12:32.864Z,4.3
2018-05-04T03:13:33.585Z,4.3
2018-05-04T03:14:34.291Z,4.4
2018-05-04T03:15:35.039Z,4.3
2018-05-04T03:16:35.746Z,4.3
2018-05-04T03:17:36.467Z,4.3
2018-05-04T03:18:37.176Z,4.3
2018-05-04T03:19:37.888Z,4.3
2018-05-04T03:20:38.677Z,4.3
2018-05-04T03:21:39.393Z,4.2
2018-05-04T03:22:40.112Z,4.3
2018-05-04T03:23:40.832Z,4.3
2018-05-04T03:24:41.563Z,4.3
2018-05-04T03:25:42.279Z,4.3
2018-05-04T03:26:42.995Z,4.3
2018-05-04T03:27:43.702Z,4.3
2018-05-04T03:28:44.417Z,4.3
2018-05-04T03:29:45.139Z,4.3
2018-05-04T03:30:45.847Z,4.3
2018-05-04T03:31:46.559Z,4.3
2018-05-04T03:32:47.265Z,4.3
2018-05-04T03:33:47.976Z,4.3
2018-05-04T03:34:48.690Z,4.3
2018-05-04T03:35:49.400Z,4.3
2018-05-04T03:36:50.119Z,4.4
2018-05-04T03:37:50.828Z,4.2
2018-05-04T03:38:51.547Z,4.3
2018-05-04T03:39:52.268Z,4.3
2018-05-04T03:40:52.986Z,4.2
2018-05-04T03:41:53.706Z,4.2
2018-05-04T03:42:54.505Z,4.3
2018-05-04T03:43:55.151Z,4.3
2018-05-04T03:44:55.876Z,4.2
2018-05-04T03:45:56.850Z,4.3
2018-05-04T03:46:57.562Z,4.2
2018-05-04T03:47:58.832Z,4.1
2018-05-04T03:48:59.536Z,4.2
2018-05-04T03:50:00.267Z,4.1
2018-05-04T03:51:00.989Z,4.1
2018-05-04T03:52:01.732Z,4.1
2018-05-04T03:53:02.482Z,4.2
2018-05-04T03:54:03.207Z,4.3
2018-05-04T03:55:03.926Z,4.4
2018-05-04T03:56:05.202Z,4.3
2018-05-04T03:57:05.927Z,4.2
2018-05-04T03:58:06.734Z,4.2
2018-05-04T03:59:07.546Z,4.3
2018-05-04T04:00:08.277Z,4.2
2018-05-04T04:01:09.036Z,4.2
2018-05-04T04:02:09.759Z,4.3
2018-05-04T04:03:10.598Z,4.1
2018-05-04T04:04:11.352Z,4.2
2018-05-04T04:05:12.133Z,4.1
2018-05-04T04:06:12.888Z,4.1
2018-05-04T04:07:14.044Z,4.1
2018-05-04T04:08:14.826Z,4.1
2018-05-04T04:09:15.586Z,4.1
2018-05-04T04:10:16.324Z,4.0
2018-05-04T04:11:17.056Z,4.0
2018-05-04T04:12:17.770Z,4.1
2018-05-04T04:13:18.486Z,4.0
2018-05-04T04:14:19.207Z,4.1
2018-05-04T04:15:19.925Z,4.2
2018-05-04T04:16:20.654Z,4.3
2018-05-04T04:17:21.377Z,4.3
2018-05-04T04:18:22.093Z,4.3
2018-05-04T04:19:22.809Z,4.3
2018-05-04T04:20:23.524Z,4.2
2018-05-04T04:21:24.248Z,4.3
2018-05-04T04:22:24.981Z,4.3
2018-05-04T04:23:25.697Z,4.2
2018-05-04T04:24:26.474Z,4.3
2018-05-04T04:25:27.183Z,4.3
2018-05-04T04:26:27.898Z,4.3
2018-05-04T04:27:28.624Z,4.3
2018-05-04T04:28:29.334Z,4.3
2018-05-04T04:29:30.066Z,4.3
2018-05-04T04:30:30.804Z,4.3
2018-05-04T04:31:31.535Z,4.4
2018-05-04T04:32:32.254Z,4.3
2018-05-04T04:33:32.991Z,4.4
2018-05-04T04:34:33.706Z,4.3
2018-05-04T04:35:34.424Z,4.5
2018-05-04T04:36:35.149Z,4.5
2018-05-04T04:37:35.870Z,4.6
2018-05-04T04:38:36.603Z,4.6
2018-05-04T04:39:37.378Z,4.6
2018-05-04T04:40:38.098Z,4.6
2018-05-04T04:41:38.820Z,4.7
2018-05-04T04:42:39.541Z,4.6
2018-05-04T04:43:40.256Z,4.8
2018-05-04T04:44:41.330Z,4.8
2018-05-04T04:45:42.290Z,4.8
2018-05-04T04:46:43.277Z,4.7
2018-05-04T04:47:43.992Z,4.9
2018-05-04T04:48:44.716Z,4.8
2018-05-04T04:49:45.847Z,4.9
2018-05-04T04:50:46.590Z,4.9
2018-05-04T04:51:47.569Z,4.9
2018-05-04T04:52:48.281Z,5.0
2018-05-04T04:53:49.011Z,5.0
2018-05-04T04:54:49.740Z,5.1
2018-05-04T04:55:50.466Z,5.1
2018-05-04T04:56:51.237Z,5.0
2018-05-04T04:57:51.906Z,5.2
2018-05-04T04:58:52.639Z,5.2
2018-05-04T04:59:53.801Z,5.2
2018-05-04T05:00:54.590Z,5.2
2018-05-04T05:01:55.260Z,5.2
2018-05-04T05:02:55.966Z,5.2
2018-05-04T05:03:56.694Z,5.2
2018-05-04T05:04:57.514Z,5.3
2018-05-04T05:05:58.236Z,5.3
2018-05-04T05:06:58.954Z,5.3
2018-05-04T05:07:59.685Z,5.3
2018-05-04T05:09:00.403Z,5.4
2018-05-04T05:10:01.231Z,5.5
2018-05-04T05:11:01.974Z,5.6
2018-05-04T05:12:02.723Z,5.7
2018-05-04T05:13:03.495Z,5.7
2018-05-04T05:14:04.249Z,5.7
2018-05-04T05:15:05.072Z,5.9
2018-05-04T05:16:05.821Z,5.9
2018-05-04T05:17:06.649Z,6.0
2018-05-04T05:18:07.471Z,6.1
2018-05-04T05:19:08.223Z,6.4
2018-05-04T05:20:08.932Z,6.6
2018-05-04T05:21:09.649Z,6.8
2018-05-04T05:22:10.368Z,7.1
2018-05-04T05:23:11.239Z,7.3
2018-05-04T05:24:11.962Z,7.5
2018-05-04T05:25:12.681Z,7.7
2018-05-04T05:26:13.432Z,8.0
2018-05-04T05:27:14.194Z,8.2
2018-05-04T05:28:15.140Z,8.3
2018-05-04T05:29:16.326Z,8.5
2018-05-04T05:30:17.300Z,8.6
2018-05-04T05:31:18.023Z,8.8
2018-05-04T05:32:19.305Z,9.0
2018-05-04T05:33:20.127Z,9.2
2018-05-04T05:34:20.856Z,9.2
2018-05-04T05:35:21.988Z,9.4
2018-05-04T05:36:22.965Z,9.6
2018-05-04T05:37:24.467Z,9.7
2018-05-04T05:38:25.176Z,9.8
2018-05-04T05:39:25.884Z,9.9
2018-05-04T05:40:27.026Z,9.9
2018-05-04T05:41:27.739Z,9.9
2018-05-04T05:42:28.528Z,10.1
2018-05-04T05:43:29.647Z,10.2
2018-05-04T05:44:31.121Z,10.3
2018-05-04T05:45:31.832Z,10.3
2018-05-04T05:46:32.550Z,10.3
2018-05-04T05:47:33.620Z,10.4
2018-05-04T05:48:34.778Z,10.4
2018-05-04T05:49:35.487Z,10.4
2018-05-04T05:50:36.209Z,10.5
2018-05-04T05:51:36.919Z,10.7
2018-05-04T05:52:37.649Z,10.7
2018-05-04T05:53:38.370Z,10.9
2018-05-04T05:54:39.159Z,11.0
2018-05-04T05:55:39.807Z,10.9
2018-05-04T05:56:40.567Z,11.0
2018-05-04T05:57:41.291Z,11.0
2018-05-04T05:58:42.267Z,11.1
2018-05-04T05:59:42.963Z,11.1
2018-05-04T06:00:43.681Z,11.2
2018-05-04T06:01:44.399Z,11.2
2018-05-04T06:02:45.139Z,11.2
2018-05-04T06:03:45.857Z,11.3
2018-05-04T06:04:46.930Z,11.3
2018-05-04T06:05:47.645Z,11.2
2018-05-04T06:06:48.362Z,11.2
2018-05-04T06:07:49.103Z,10.9
2018-05-04T06:08:49.831Z,11.0
2018-05-04T06:09:50.572Z,10.9
2018-05-04T06:10:51.283Z,10.9
2018-05-04T06:11:52.006Z,10.9
2018-05-04T06:12:52.722Z,10.9
2018-05-04T06:13:53.457Z,10.8
2018-05-04T06:14:54.200Z,10.8
2018-05-04T06:15:54.904Z,10.8
2018-05-04T06:16:55.634Z,10.8
2018-05-04T06:17:56.366Z,10.7
2018-05-04T06:18:57.082Z,10.8
2018-05-04T06:19:57.797Z,10.9
2018-05-04T06:20:58.622Z,11.0
2018-05-04T06:21:59.350Z,11.0
2018-05-04T06:23:00.080Z,10.9
2018-05-04T06:24:00.793Z,10.9
2018-05-04T06:25:01.787Z,10.9
2018-05-04T06:26:02.574Z,10.9
2018-05-04T06:27:03.288Z,11.0
2018-05-04T06:28:04.015Z,11.1
2018-05-04T06:29:04.730Z,11.1
2018-05-04T06:30:05.453Z,11.1
2018-05-04T06:31:06.176Z,11.1
2018-05-04T06:32:06.899Z,11.2
2018-05-04T06:33:07.623Z,11.2
2018-05-04T06:34:08.344Z,11.3
2018-05-04T06:35:09.065Z,11.3
2018-05-04T06:36:09.791Z,11.4
2018-05-04T06:37:10.512Z,11.4
2018-05-04T06:38:11.232Z,11.5
2018-05-04T06:39:11.956Z,11.5
2018-05-04T06:40:12.687Z,11.5
2018-05-04T06:41:13.401Z,11.6
2018-05-04T06:42:14.125Z,11.6
2018-05-04T06:43:14.857Z,11.7
2018-05-04T06:44:15.585Z,11.7
2018-05-04T06:45:16.376Z,11.7
2018-05-04T06:46:17.044Z,11.7
2018-05-04T06:47:17.759Z,11.8
2018-05-04T06:48:18.488Z,11.9
2018-05-04T06:49:19.212Z,12.0
2018-05-04T06:50:19.924Z,12.0
2018-05-04T06:51:20.662Z,12.0
2018-05-04T06:52:21.734Z,12.1
2018-05-04T06:53:22.537Z,12.0
2018-05-04T06:54:23.182Z,12.1
2018-05-04T06:55:23.903Z,12.2
2018-05-04T06:56:24.624Z,12.2
2018-05-04T06:57:25.492Z,12.2
2018-05-04T06:58:26.217Z,12.2
2018-05-04T06:59:27.006Z,12.3
2018-05-04T07:00:27.654Z,12.4
2018-05-04T07:01:28.378Z,12.4
2018-05-04T07:02:29.346Z,12.4
2018-05-04T07:03:30.090Z,12.4
2018-05-04T07:04:30.805Z,12.5
2018-05-04T07:05:31.782Z,12.4
2018-05-04T07:06:32.563Z,12.6
2018-05-04T07:07:33.281Z,12.5
2018-05-04T07:08:34.253Z,12.5
2018-05-04T07:09:34.983Z,12.6
2018-05-04T07:10:35.703Z,12.6
2018-05-04T07:11:36.469Z,12.8
2018-05-04T07:12:37.187Z,12.9
2018-05-04T07:13:37.912Z,13.1
2018-05-04T07:14:38.650Z,13.2
2018-05-04T07:15:39.367Z,13.4
2018-05-04T07:16:40.338Z,13.6
2018-05-04T07:17:41.078Z,13.9
2018-05-04T07:18:41.789Z,14.1
2018-05-04T07:19:42.569Z,14.1
2018-05-04T07:20:43.617Z,14.2
2018-05-04T07:21:45.046Z,14.3
2018-05-04T07:22:46.133Z,14.6
2018-05-04T07:23:47.224Z,14.7
2018-05-04T07:24:48.477Z,15.0
2018-05-04T07:25:49.336Z,14.8
2018-05-04T07:26:50.094Z,15.0
2018-05-04T07:27:50.808Z,15.1
2018-05-04T07:28:51.539Z,15.1
2018-05-04T07:29:52.319Z,15.3
2018-05-04T07:30:53.392Z,15.4
2018-05-04T07:31:54.121Z,15.6
2018-05-04T07:32:54.839Z,15.6
2018-05-04T07:33:55.810Z,15.6
2018-05-04T07:34:56.558Z,15.6
2018-05-04T07:35:57.296Z,15.9
2018-05-04T07:36:58.014Z,15.7
2018-05-04T07:37:58.982Z,15.8
2018-05-04T07:38:59.711Z,15.8
2018-05-04T07:40:00.432Z,16.1
2018-05-04T07:41:01.566Z,16.2
2018-05-04T07:42:02.296Z,16.4
2018-05-04T07:43:03.091Z,16.3
2018-05-04T07:44:03.746Z,16.4
2018-05-04T07:45:04.460Z,16.3
2018-05-04T07:46:05.192Z,16.5
2018-05-04T07:47:05.907Z,16.9
2018-05-04T07:48:06.636Z,17.1
2018-05-04T07:49:07.775Z,17.3
2018-05-04T07:50:08.491Z,17.7
2018-05-04T07:51:09.221Z,17.6
2018-05-04T07:52:09.944Z,17.7
2018-05-04T07:53:10.685Z,18.0
2018-05-04T07:54:11.422Z,18.1
2018-05-04T07:55:12.405Z,18.1
2018-05-04T07:56:13.118Z,18.1
2018-05-04T07:57:13.835Z,18.3
2018-05-04T07:58:14.810Z,18.3
2018-05-04T07:59:15.543Z,18.1
2018-05-04T08:00:16.275Z,18.0
2018-05-04T08:01:16.999Z,18.1
2018-05-04T08:02:17.724Z,18.0
2018-05-04T08:03:18.710Z,18.0
2018-05-04T08:04:19.444Z,17.9
2018-05-04T08:05:20.582Z,17.9
2018-05-04T08:06:21.309Z,18.0
2018-05-04T08:07:22.292Z,18.0
2018-05-04T08:08:23.274Z,18.1
2018-05-04T08:09:24.002Z,18.0
2018-05-04T08:10:24.823Z,18.0
2018-05-04T08:11:25.551Z,18.2
2018-05-04T08:12:26.281Z,17.8
2018-05-04T08:13:27.026Z,18.0
2018-05-04T08:14:27.765Z,18.2
2018-05-04T08:15:28.883Z,18.5
2018-05-04T08:16:29.629Z,18.5
2018-05-04T08:17:30.351Z,18.5
2018-05-04T08:18:31.341Z,18.7
2018-05-04T08:19:32.071Z,18.8
2018-05-04T08:20:33.190Z,18.8
2018-05-04T08:21:33.914Z,18.8
2018-05-04T08:22:34.663Z,18.8
2018-05-04T08:23:35.396Z,18.9
2018-05-04T08:24:36.140Z,19.1
2018-05-04T08:25:37.271Z,19.1
2018-05-04T08:26:38.007Z,19.2
2018-05-04T08:27:38.732Z,19.2
2018-05-04T08:28:39.467Z,19.4
2018-05-04T08:29:40.192Z,19.4
2018-05-04T08:30:40.928Z,19.3
2018-05-04T08:31:41.670Z,19.2
2018-05-04T08:32:42.710Z,19.3
2018-05-04T08:33:43.433Z,19.2
2018-05-04T08:34:44.167Z,19.5
2018-05-04T08:35:44.875Z,19.7
2018-05-04T08:36:45.625Z,20.0
2018-05-04T08:37:46.430Z,20.2
2018-05-04T08:38:47.298Z,20.2
2018-05-04T08:39:48.293Z,20.2
2018-05-04T08:40:49.058Z,20.2
2018-05-04T08:41:49.846Z,20.4
2018-05-04T08:42:50.733Z,20.6
2018-05-04T08:43:51.390Z,20.6
2018-05-04T08:44:52.137Z,20.6
2018-05-04T08:45:52.867Z,20.8
2018-05-04T08:46:53.630Z,20.8
2018-05-04T08:47:54.328Z,20.9
2018-05-04T08:48:55.304Z,20.9
2018-05-04T08:49:56.190Z,21.2
2018-05-04T08:50:56.940Z,21.2
2018-05-04T08:51:57.654Z,21.3
2018-05-04T08:52:58.356Z,21.5
2018-05-04T08:53:59.186Z,21.7
2018-05-04T08:54:59.921Z,21.7
2018-05-04T08:56:00.916Z,21.7
2018-05-04T08:57:01.640Z,21.8
2018-05-04T08:58:02.376Z,22.0
2018-05-04T08:59:03.108Z,22.2
2018-05-04T09:00:03.939Z,22.3
2018-05-04T09:01:04.682Z,22.2
2018-05-04T09:02:05.411Z,22.3
2018-05-04T09:03:06.143Z,22.3
2018-05-04T09:04:06.871Z,22.3
2018-05-04T09:05:07.985Z,22.2
2018-05-04T09:06:08.632Z,21.8
2018-05-04T09:07:09.604Z,22.0
2018-05-04T09:08:10.609Z,21.9
2018-05-04T09:09:11.328Z,22.1
2018-05-04T09:10:12.361Z,22.3
2018-05-04T09:11:13.087Z,22.5
2018-05-04T09:12:13.819Z,22.5
2018-05-04T09:13:14.555Z,22.7
2018-05-04T09:14:15.284Z,22.7
2018-05-04T09:15:16.000Z,22.9
2018-05-04T09:16:16.741Z,22.9
2018-05-04T09:17:17.467Z,22.9
2018-05-04T09:18:18.198Z,22.9
2018-05-04T09:19:18.917Z,23.0
2018-05-04T09:20:19.653Z,23.1
2018-05-04T09:21:20.379Z,22.8
2018-05-04T09:22:21.259Z,22.5
2018-05-04T09:23:21.991Z,22.3
2018-05-04T09:24:22.720Z,22.3
2018-05-04T09:25:23.536Z,21.9
2018-05-04T09:26:24.174Z,21.9
2018-05-04T09:27:24.959Z,22.0
2018-05-04T09:28:25.687Z,22.1
2018-05-04T09:29:26.412Z,21.7
2018-05-04T09:30:27.143Z,21.8
2018-05-04T09:31:27.880Z,22.0
2018-05-04T09:32:28.968Z,22.2
2018-05-04T09:33:29.956Z,22.2
2018-05-04T09:34:30.696Z,22.2
2018-05-04T09:35:31.425Z,22.1
2018-05-04T09:36:32.163Z,22.2
2018-05-04T09:37:32.891Z,22.2
2018-05-04T09:38:33.873Z,22.4
2018-05-04T09:39:34.606Z,22.2
2018-05-04T09:40:35.332Z,22.3
2018-05-04T09:41:36.088Z,22.2
2018-05-04T09:42:36.817Z,22.3
2018-05-04T09:43:37.628Z,22.1
2018-05-04T09:44:38.303Z,22.3
2018-05-04T09:45:39.040Z,22.3
2018-05-04T09:46:39.770Z,22.3
2018-05-04T09:47:40.505Z,22.4
2018-05-04T09:48:41.230Z,22.5
2018-05-04T09:49:42.117Z,22.6
2018-05-04T09:50:42.845Z,22.7
2018-05-04T09:51:43.590Z,22.8
2018-05-04T09:52:44.569Z,22.9
2018-05-04T09:53:45.294Z,23.0
2018-05-04T09:54:46.269Z,23.1
2018-05-04T09:55:46.992Z,23.3
2018-05-04T09:56:47.724Z,23.5
2018-05-04T09:57:48.456Z,23.6
2018-05-04T09:58:49.207Z,23.3
2018-05-04T09:59:49.948Z,23.4
2018-05-04T10:00:50.689Z,23.5
2018-05-04T10:01:51.474Z,23.0
2018-05-04T10:02:52.219Z,23.1
2018-05-04T10:03:52.948Z,23.0
2018-05-04T10:04:53.683Z,23.1
2018-05-04T10:05:54.418Z,23.1
2018-05-04T10:06:55.528Z,23.1
2018-05-04T10:07:56.242Z,23.1
2018-05-04T10:08:56.971Z,23.0
2018-05-04T10:09:57.709Z,23.1
2018-05-04T10:10:58.437Z,23.2
2018-05-04T10:11:59.428Z,23.0
2018-05-04T10:13:00.167Z,22.8
2018-05-04T10:14:00.886Z,22.7
2018-05-04T10:15:01.877Z,22.8
2018-05-04T10:16:02.620Z,22.9
2018-05-04T10:17:03.352Z,23.2
2018-05-04T10:18:04.080Z,23.5
2018-05-04T10:19:04.923Z,23.7
2018-05-04T10:20:05.653Z,24.1
2018-05-04T10:21:06.379Z,24.3
2018-05-04T10:22:07.119Z,24.3
2018-05-04T10:23:07.843Z,24.4
2018-05-04T10:24:08.583Z,24.7
2018-05-04T10:25:09.334Z,24.9
2018-05-04T10:26:10.050Z,25.2
2018-05-04T10:27:10.786Z,24.7
2018-05-04T10:28:11.684Z,24.6
2018-05-04T10:29:12.403Z,24.5
2018-05-04T10:30:13.150Z,24.5
2018-05-04T10:31:14.128Z,24.5
2018-05-04T10:32:14.845Z,24.6
2018-05-04T10:33:15.581Z,24.6
2018-05-04T10:34:16.323Z,24.3
2018-05-04T10:35:17.062Z,24.0
2018-05-04T10:36:17.810Z,24.0
2018-05-04T10:37:18.548Z,24.3
2018-05-04T10:38:19.650Z,24.5
2018-05-04T10:39:20.386Z,24.3
2018-05-04T10:40:21.123Z,24.3
2018-05-04T10:41:21.851Z,24.3
2018-05-04T10:42:22.843Z,24.4
2018-05-04T10:43:23.598Z,24.6
2018-05-04T10:44:24.327Z,25.2
2018-05-04T10:45:25.072Z,25.2
2018-05-04T10:46:25.799Z,24.9
2018-05-04T10:47:26.535Z,24.8
2018-05-04T10:48:27.307Z,24.9
2018-05-04T10:49:27.993Z,24.6
2018-05-04T10:50:28.719Z,24.7
2018-05-04T10:51:29.488Z,24.8
2018-05-04T10:52:30.212Z,25.0
2018-05-04T10:53:30.942Z,24.4
2018-05-04T10:54:31.684Z,24.5
2018-05-04T10:55:32.416Z,24.6
2018-05-04T10:56:33.149Z,24.5
2018-05-04T10:57:33.895Z,24.4
2018-05-04T10:58:34.656Z,24.4
2018-05-04T10:59:35.445Z,24.5
2018-05-04T11:00:36.122Z,24.8
2018-05-04T11:01:36.904Z,24.8
2018-05-04T11:02:37.645Z,24.5
2018-05-04T11:03:38.371Z,24.5
2018-05-04T11:04:39.119Z,24.8
2018-05-04T11:05:39.851Z,24.9
2018-05-04T11:06:40.654Z,24.9
2018-05-04T11:07:41.553Z,25.3
2018-05-04T11:08:42.282Z,25.3
2018-05-04T11:09:43.016Z,25.6
2018-05-04T11:10:43.747Z,25.7
2018-05-04T11:11:44.474Z,25.7
2018-05-04T11:12:45.206Z,25.7
2018-05-04T11:13:45.948Z,25.2
2018-05-04T11:14:46.843Z,24.9
2018-05-04T11:15:47.572Z,24.9
2018-05-04T11:16:48.552Z,25.0
2018-05-04T11:17:49.286Z,25.3
2018-05-04T11:18:50.030Z,25.4
2018-05-04T11:19:51.170Z,25.8
2018-05-04T11:20:51.899Z,25.9
2018-05-04T11:21:52.649Z,25.9
2018-05-04T11:22:53.373Z,26.0
2018-05-04T11:23:54.102Z,25.8
2018-05-04T11:24:54.840Z,25.5
2018-05-04T11:25:55.872Z,25.5
2018-05-04T11:26:56.615Z,25.7
2018-05-04T11:27:57.343Z,25.9
2018-05-04T11:28:58.081Z,26.0
2018-05-04T11:29:58.807Z,26.0
2018-05-04T11:30:59.542Z,26.2
2018-05-04T11:32:00.573Z,26.5
2018-05-04T11:33:01.303Z,26.4
2018-05-04T11:34:02.049Z,26.2
2018-05-04T11:35:02.784Z,26.2
2018-05-04T11:36:03.534Z,26.5
2018-05-04T11:37:04.255Z,26.9
2018-05-04T11:38:04.999Z,26.3
2018-05-04T11:39:05.746Z,26.4
2018-05-04T11:40:06.498Z,26.4
2018-05-04T11:41:07.233Z,26.8
2018-05-04T11:42:07.971Z,26.6
2018-05-04T11:43:08.713Z,26.6
2018-05-04T11:44:09.447Z,26.5
2018-05-04T11:45:10.180Z,26.8
2018-05-04T11:46:10.912Z,27.1
2018-05-04T11:47:11.707Z,27.3
2018-05-04T11:48:12.466Z,26.8
2018-05-04T11:49:13.192Z,26.5
2018-05-04T11:50:14.172Z,26.5
2018-05-04T11:51:14.907Z,26.2
2018-05-04T11:52:15.694Z,25.8
2018-05-04T11:53:16.426Z,25.5
2018-05-04T11:54:17.162Z,25.2
2018-05-04T11:55:17.952Z,25.3
2018-05-04T11:56:18.637Z,24.9
2018-05-04T11:57:19.382Z,25.3
2018-05-04T11:58:20.383Z,25.5
2018-05-04T11:59:21.120Z,25.7
2018-05-04T12:00:21.856Z,26.2
2018-05-04T12:01:22.849Z,26.6
2018-05-04T12:02:23.630Z,26.1
2018-05-04T12:03:24.367Z,26.2
2018-05-04T12:04:25.115Z,26.1
2018-05-04T12:05:25.839Z,26.2
2018-05-04T12:06:26.821Z,25.9
2018-05-04T12:07:27.805Z,26.0
2018-05-04T12:08:28.888Z,26.2
2018-05-04T12:09:29.881Z,26.6
2018-05-04T12:10:30.866Z,26.8
2018-05-04T12:11:31.601Z,27.1
2018-05-04T12:12:32.332Z,27.5
2018-05-04T12:13:33.072Z,28.0
2018-05-04T12:14:33.819Z,28.2
2018-05-04T12:15:34.551Z,28.4
2018-05-04T12:16:35.286Z,28.5
2018-05-04T12:17:36.025Z,28.2
2018-05-04T12:18:36.757Z,27.5
2018-05-04T12:19:37.501Z,27.0
2018-05-04T12:20:38.235Z,26.4
2018-05-04T12:21:39.322Z,25.7
2018-05-04T12:22:40.111Z,25.0
2018-05-04T12:23:40.795Z,24.2
2018-05-04T12:24:41.529Z,23.8
2018-05-04T12:25:42.275Z,23.6
2018-05-04T12:26:43.055Z,23.8
2018-05-04T12:27:43.790Z,24.2
2018-05-04T12:28:44.531Z,24.3
2018-05-04T12:29:45.273Z,24.7
2018-05-04T12:30:46.013Z,25.1
2018-05-04T12:31:46.882Z,25.3
2018-05-04T12:32:47.537Z,25.7
2018-05-04T12:33:48.263Z,26.0
2018-05-04T12:34:49.008Z,26.3
2018-05-04T12:35:49.749Z,26.7
2018-05-04T12:36:50.490Z,27.0
2018-05-04T12:37:51.221Z,27.0
2018-05-04T12:38:51.967Z,27.3
2018-05-04T12:39:52.694Z,27.1
2018-05-04T12:40:53.419Z,27.0
2018-05-04T12:41:54.170Z,26.6
2018-05-04T12:42:54.902Z,26.7
2018-05-04T12:43:56.022Z,26.4
2018-05-04T12:44:56.742Z,26.5
2018-05-04T12:45:57.474Z,26.5
2018-05-04T12:46:58.226Z,26.0
2018-05-04T12:47:58.924Z,26.3
2018-05-04T12:48:59.930Z,25.8
2018-05-04T12:50:00.694Z,25.5
2018-05-04T12:51:01.789Z,25.5
2018-05-04T12:52:02.524Z,25.7
2018-05-04T12:53:03.259Z,26.0
2018-05-04T12:54:04.073Z,26.4
2018-05-04T12:55:04.731Z,26.6
2018-05-04T12:56:05.557Z,26.6
2018-05-04T12:57:06.532Z,26.0
2018-05-04T12:58:07.277Z,25.7
2018-05-04T12:59:08.022Z,26.0
2018-05-04T13:00:08.756Z,26.2
2018-05-04T13:01:09.502Z,26.1
2018-05-04T13:02:10.592Z,26.2
2018-05-04T13:03:11.318Z,26.4
2018-05-04T13:04:12.057Z,26.5
2018-05-04T13:05:12.793Z,26.6
2018-05-04T13:06:13.521Z,26.6
2018-05-04T13:07:14.598Z,26.2
2018-05-04T13:08:15.336Z,25.5
2018-05-04T13:09:16.069Z,25.2
2018-05-04T13:10:16.804Z,25.4
2018-05-04T13:11:17.822Z,25.8
2018-05-04T13:12:18.571Z,25.4
2018-05-04T13:13:19.308Z,25.3
2018-05-04T13:14:20.066Z,25.7
2018-05-04T13:15:20.810Z,25.8
2018-05-04T13:16:21.934Z,25.8
2018-05-04T13:17:23.032Z,25.9
2018-05-04T13:18:23.792Z,26.2
2018-05-04T13:19:24.511Z,26.5
2018-05-04T13:20:25.254Z,26.8
2018-05-04T13:21:26.255Z,26.9
2018-05-04T13:22:27.013Z,26.9
2018-05-04T13:23:27.917Z,27.1
2018-05-04T13:24:29.000Z,27.4
2018-05-04T13:25:29.731Z,27.4
2018-05-04T13:26:30.475Z,27.6
2018-05-04T13:27:31.232Z,27.8
2018-05-04T13:28:32.212Z,27.9
2018-05-04T13:29:32.947Z,28.0
2018-05-04T13:30:33.687Z,27.9
2018-05-04T13:31:34.415Z,27.7
2018-05-04T13:32:35.512Z,27.3
2018-05-04T13:33:36.501Z,26.8
2018-05-04T13:34:37.232Z,26.8
2018-05-04T13:35:37.962Z,27.0
2018-05-04T13:36:38.698Z,27.1
2018-05-04T13:37:39.533Z,27.2
2018-05-04T13:38:40.346Z,27.1
2018-05-04T13:39:41.007Z,27.3